createdAt,value
2023-05-07T00:00:51.988Z,1063.00
2023-05-07T00:01:52.005Z,1071.00
2023-05-07T00:02:52.105Z,1067.00
2023-05-07T00:03:52.226Z,1072.00
2023-05-07T00:04:52.111Z,1082.00
2023-05-07T00:05:52.129Z,1079.00
2023-05-07T00:06:52.221Z,1078.00
2023-05-07T00:07:52.185Z,1061.00
2023-05-07T00:08:52.211Z,1056.00
2023-05-07T00:09:52.253Z,1067.00
2023-05-07T00:10:52.269Z,1065.00
2023-05-07T00:11:52.310Z,1065.00
2023-05-07T00:12:52.391Z,1058.00
2023-05-07T00:13:52.384Z,1067.00
2023-05-07T00:14:52.400Z,1067.00
2023-05-07T00:15:52.438Z,1067.00
2023-05-07T00:16:52.525Z,1062.00
2023-05-07T00:17:52.534Z,1075.00
2023-05-07T00:18:52.554Z,1057.00
2023-05-07T00:19:52.587Z,1064.00
2023-05-07T00:20:52.665Z,1072.00
2023-05-07T00:21:52.712Z,1069.00
2023-05-07T00:22:52.774Z,1074.00
2023-05-07T00:23:52.881Z,1075.00
2023-05-07T00:24:52.892Z,1069.00
2023-05-07T00:25:52.944Z,1056.00
2023-05-07T00:26:53.032Z,1059.00
2023-05-07T00:27:53.061Z,1048.00
2023-05-07T00:28:53.103Z,1065.00
2023-05-07T00:29:53.168Z,1052.00
2023-05-07T00:30:53.213Z,1064.00
2023-05-07T00:31:53.382Z,1065.00
2023-05-07T00:32:53.352Z,1066.00
2023-05-07T00:33:53.310Z,1056.00
2023-05-07T00:34:53.422Z,1063.00
2023-05-07T00:35:53.382Z,1059.00
2023-05-07T00:36:53.418Z,1062.00
2023-05-07T00:37:53.460Z,1063.00
2023-05-07T00:38:53.503Z,1060.00
2023-05-07T00:39:53.881Z,1057.00
2023-05-07T00:40:53.568Z,1068.00
2023-05-07T00:41:53.605Z,1045.00
2023-05-07T00:42:53.689Z,1054.00
2023-05-07T00:43:53.702Z,1064.00
2023-05-07T00:44:53.741Z,1049.00
2023-05-07T00:45:53.815Z,1050.00
2023-05-07T00:46:53.786Z,1051.00
2023-05-07T00:47:53.848Z,1051.00
2023-05-07T00:48:53.883Z,1052.00
2023-05-07T00:49:53.918Z,1054.00
2023-05-07T00:50:53.942Z,1046.00
2023-05-07T00:51:53.988Z,1040.00
2023-05-07T00:52:54.013Z,1045.00
2023-05-07T00:53:54.132Z,1046.00
2023-05-07T00:54:54.083Z,1046.00
2023-05-07T00:55:54.119Z,1047.00
2023-05-07T00:56:54.151Z,1050.00
2023-05-07T00:57:54.179Z,1046.00
2023-05-07T00:58:54.224Z,1053.00
2023-05-07T00:59:54.241Z,1034.00
2023-05-07T01:00:54.327Z,1042.00
2023-05-07T01:01:54.314Z,1044.00
2023-05-07T01:02:54.467Z,1038.00
2023-05-07T01:03:54.407Z,1040.00
2023-05-07T01:04:54.419Z,1049.00
2023-05-07T01:05:54.460Z,1048.00
2023-05-07T01:06:54.493Z,1042.00
2023-05-07T01:07:54.539Z,1041.00
2023-05-07T01:08:54.578Z,1026.00
2023-05-07T01:09:54.619Z,1023.00
2023-05-07T01:10:54.642Z,1016.00
2023-05-07T01:11:54.746Z,1018.00
2023-05-07T01:12:54.790Z,1014.00
2023-05-07T01:13:54.746Z,1012.00
2023-05-07T01:14:54.796Z,1014.00
2023-05-07T01:15:54.830Z,1007.00
2023-05-07T01:16:54.914Z,1003.00
2023-05-07T01:17:54.925Z,1006.00
2023-05-07T01:18:54.953Z,997.00
2023-05-07T01:19:55.011Z,992.00
2023-05-07T01:20:55.078Z,998.00
2023-05-07T01:21:55.150Z,985.00
2023-05-07T01:22:55.193Z,978.00
2023-05-07T01:23:55.253Z,997.00
2023-05-07T01:24:55.313Z,970.00
2023-05-07T01:25:55.382Z,983.00
2023-05-07T01:26:55.463Z,985.00
2023-05-07T01:27:55.506Z,977.00
2023-05-07T01:28:55.565Z,979.00
2023-05-07T01:29:55.613Z,970.00
2023-05-07T01:30:55.697Z,968.00
2023-05-07T01:31:55.769Z,970.00
2023-05-07T01:32:55.905Z,956.00
2023-05-07T01:33:55.868Z,939.00
2023-05-07T01:34:55.932Z,952.00
2023-05-07T01:35:55.991Z,956.00
2023-05-07T01:36:56.027Z,956.00
2023-05-07T01:37:56.052Z,958.00
2023-05-07T01:38:56.080Z,956.00
2023-05-07T01:39:56.119Z,940.00
2023-05-07T01:40:56.141Z,935.00
2023-05-07T01:41:56.200Z,925.00
2023-05-07T01:42:56.211Z,934.00
2023-05-07T01:43:56.257Z,927.00
2023-05-07T01:44:56.276Z,922.00
2023-05-07T01:45:56.351Z,911.00
2023-05-07T01:46:56.373Z,902.00
2023-05-07T01:47:56.536Z,902.00
2023-05-07T01:48:56.411Z,903.00
2023-05-07T01:49:56.449Z,892.00
2023-05-07T01:50:56.489Z,883.00
2023-05-07T01:51:56.540Z,871.00
2023-05-07T01:52:56.551Z,853.00
2023-05-07T01:53:56.600Z,850.00
2023-05-07T01:54:56.622Z,828.00
2023-05-07T01:55:56.658Z,808.00
2023-05-07T01:56:56.713Z,793.00
2023-05-07T01:57:56.782Z,794.00
2023-05-07T01:58:56.843Z,759.00
2023-05-07T01:59:56.965Z,774.00
2023-05-07T02:00:56.967Z,771.00
2023-05-07T02:01:57.104Z,768.00
2023-05-07T02:02:57.193Z,753.00
2023-05-07T02:03:57.270Z,744.00
2023-05-07T02:04:57.229Z,751.00
2023-05-07T02:05:57.399Z,749.00
2023-05-07T02:06:57.341Z,741.00
2023-05-07T02:07:57.406Z,754.00
2023-05-07T02:08:57.464Z,743.00
2023-05-07T02:09:57.530Z,745.00
2023-05-07T02:10:57.573Z,732.00
2023-05-07T02:11:57.640Z,719.00
2023-05-07T02:12:57.737Z,702.00
2023-05-07T02:13:57.811Z,705.00
2023-05-07T02:14:57.857Z,700.00
2023-05-07T02:15:58.022Z,694.00
2023-05-07T02:16:57.947Z,676.00
2023-05-07T02:17:58.081Z,667.00
2023-05-07T02:18:58.060Z,663.00
2023-05-07T02:19:58.126Z,658.00
2023-05-07T02:20:58.173Z,656.00
2023-05-07T02:21:58.204Z,634.00
2023-05-07T02:22:58.288Z,632.00
2023-05-07T02:23:58.302Z,633.00
2023-05-07T02:24:58.352Z,619.00
2023-05-07T02:25:58.415Z,615.00
2023-05-07T02:26:58.460Z,620.00
2023-05-07T02:27:58.488Z,620.00
2023-05-07T02:28:58.528Z,609.00
2023-05-07T02:29:58.570Z,606.00
2023-05-07T02:30:58.625Z,605.00
2023-05-07T02:31:58.788Z,601.00
2023-05-07T02:32:58.724Z,597.00
2023-05-07T02:33:58.740Z,590.00
2023-05-07T02:34:58.771Z,582.00
2023-05-07T02:35:58.814Z,587.00
2023-05-07T02:36:58.854Z,583.00
2023-05-07T02:37:58.910Z,572.00
2023-05-07T02:38:58.924Z,574.00
2023-05-07T02:39:58.960Z,583.00
2023-05-07T02:40:58.997Z,578.00
2023-05-07T02:41:59.069Z,572.00
2023-05-07T02:42:59.100Z,564.00
2023-05-07T02:43:59.105Z,566.00
2023-05-07T02:44:59.138Z,558.00
2023-05-07T02:45:59.229Z,559.00
2023-05-07T02:46:59.241Z,559.00
2023-05-07T02:47:59.413Z,543.00
2023-05-07T02:48:59.313Z,549.00
2023-05-07T02:49:59.337Z,549.00
2023-05-07T02:50:59.378Z,542.00
2023-05-07T02:51:59.420Z,538.00
2023-05-07T02:52:59.483Z,532.00
2023-05-07T02:53:59.532Z,532.00
2023-05-07T02:54:59.564Z,535.00
2023-05-07T02:55:59.703Z,528.00
2023-05-07T02:56:59.704Z,532.00
2023-05-07T02:57:59.849Z,534.00
2023-05-07T02:58:59.796Z,527.00
2023-05-07T02:59:59.855Z,523.00
2023-05-07T03:00:59.972Z,530.00
2023-05-07T03:01:59.937Z,530.00
2023-05-07T03:03:00.026Z,529.00
2023-05-07T03:04:00.162Z,530.00
2023-05-07T03:05:00.057Z,526.00
2023-05-07T03:06:00.096Z,517.00
2023-05-07T03:07:00.112Z,518.00
2023-05-07T03:08:00.167Z,520.00
2023-05-07T03:09:00.191Z,517.00
2023-05-07T03:10:01.301Z,520.00
2023-05-07T03:11:00.267Z,531.00
2023-05-07T03:12:00.297Z,520.00
2023-05-07T03:13:00.394Z,518.00
2023-05-07T03:14:00.393Z,527.00
2023-05-07T03:15:00.377Z,527.00
2023-05-07T03:16:00.466Z,525.00
2023-05-07T03:17:00.465Z,514.00
2023-05-07T03:18:00.577Z,512.00
2023-05-07T03:19:00.576Z,518.00
2023-05-07T03:20:00.599Z,516.00
2023-05-07T03:21:00.723Z,508.00
2023-05-07T03:22:00.638Z,503.00
2023-05-07T03:23:00.683Z,507.00
2023-05-07T03:24:00.721Z,516.00
2023-05-07T03:25:00.766Z,514.00
2023-05-07T03:26:00.797Z,517.00
2023-05-07T03:27:00.835Z,521.00
2023-05-07T03:28:00.882Z,521.00
2023-05-07T03:29:00.908Z,528.00
2023-05-07T03:30:00.976Z,528.00
2023-05-07T03:31:01.025Z,520.00
2023-05-07T03:32:01.055Z,520.00
2023-05-07T03:33:01.191Z,522.00
2023-05-07T03:34:01.153Z,521.00
2023-05-07T03:35:01.187Z,523.00
2023-05-07T03:36:01.323Z,525.00
2023-05-07T03:37:01.260Z,530.00
2023-05-07T03:38:01.292Z,531.00
2023-05-07T03:39:01.348Z,535.00
2023-05-07T03:40:01.402Z,536.00
2023-05-07T03:41:01.435Z,542.00
2023-05-07T03:42:01.469Z,543.00
2023-05-07T03:43:01.511Z,552.00
2023-05-07T03:44:01.541Z,555.00
2023-05-07T03:45:01.578Z,551.00
2023-05-07T03:46:01.669Z,547.00
2023-05-07T03:47:01.661Z,543.00
2023-05-07T03:48:01.775Z,546.00
2023-05-07T03:49:01.757Z,546.00
2023-05-07T03:50:01.773Z,557.00
2023-05-07T03:51:01.832Z,551.00
2023-05-07T03:52:01.863Z,551.00
2023-05-07T03:53:01.896Z,553.00
2023-05-07T03:54:01.934Z,556.00
2023-05-07T03:55:01.964Z,557.00
2023-05-07T03:56:02.004Z,560.00
2023-05-07T03:57:02.040Z,557.00
2023-05-07T03:58:02.077Z,547.00
2023-05-07T03:59:02.117Z,552.00
2023-05-07T04:00:02.143Z,558.00
2023-05-07T04:01:02.187Z,560.00
2023-05-07T04:02:05.054Z,567.00
2023-05-07T04:03:02.348Z,566.00
2023-05-07T04:04:02.417Z,567.00
2023-05-07T04:05:02.375Z,568.00
2023-05-07T04:06:02.404Z,567.00
2023-05-07T04:07:02.436Z,567.00
2023-05-07T04:08:02.564Z,564.00
2023-05-07T04:09:02.536Z,556.00
2023-05-07T04:10:02.543Z,558.00
2023-05-07T04:11:02.584Z,564.00
2023-05-07T04:12:02.635Z,559.00
2023-05-07T04:13:02.698Z,553.00
2023-05-07T04:14:02.666Z,560.00
2023-05-07T04:15:02.702Z,557.00
2023-05-07T04:16:02.753Z,547.00
2023-05-07T04:17:02.839Z,549.00
2023-05-07T04:18:02.818Z,541.00
2023-05-07T04:19:02.831Z,541.00
2023-05-07T04:20:02.872Z,543.00
2023-05-07T04:21:02.910Z,548.00
2023-05-07T04:22:02.943Z,547.00
2023-05-07T04:23:03.027Z,558.00
2023-05-07T04:24:03.079Z,561.00
2023-05-07T04:25:03.058Z,559.00
2023-05-07T04:26:03.075Z,552.00
2023-05-07T04:27:03.121Z,559.00
2023-05-07T04:28:03.160Z,560.00
2023-05-07T04:29:03.187Z,570.00
2023-05-07T04:30:03.216Z,566.00
2023-05-07T04:31:03.254Z,574.00
2023-05-07T04:32:03.367Z,569.00
2023-05-07T04:33:03.423Z,569.00
2023-05-07T04:34:03.378Z,566.00
2023-05-07T04:35:03.436Z,567.00
2023-05-07T04:36:03.443Z,571.00
2023-05-07T04:37:03.528Z,579.00
2023-05-07T04:38:03.622Z,580.00
2023-05-07T04:39:03.622Z,578.00
2023-05-07T04:40:03.832Z,581.00
2023-05-07T04:41:03.768Z,583.00
2023-05-07T04:42:03.851Z,589.00
2023-05-07T04:43:03.897Z,588.00
2023-05-07T04:44:03.962Z,584.00
2023-05-07T04:45:04.022Z,580.00
2023-05-07T04:46:04.149Z,582.00
2023-05-07T04:47:04.179Z,586.00
2023-05-07T04:48:04.259Z,579.00
2023-05-07T04:49:04.309Z,576.00
2023-05-07T04:50:04.358Z,579.00
2023-05-07T04:51:04.403Z,585.00
2023-05-07T04:52:04.478Z,585.00
2023-05-07T04:53:04.538Z,584.00
2023-05-07T04:54:04.614Z,578.00
2023-05-07T04:55:04.680Z,582.00
2023-05-07T04:56:04.873Z,587.00
2023-05-07T04:57:04.802Z,584.00
2023-05-07T04:58:04.878Z,577.00
2023-05-07T04:59:04.948Z,574.00
2023-05-07T05:00:04.986Z,572.00
2023-05-07T05:01:05.082Z,574.00
2023-05-07T05:02:05.121Z,578.00
2023-05-07T05:03:05.265Z,568.00
2023-05-07T05:04:05.306Z,574.00
2023-05-07T05:05:05.302Z,583.00
2023-05-07T05:06:05.374Z,582.00
2023-05-07T05:07:05.442Z,581.00
2023-05-07T05:08:05.515Z,582.00
2023-05-07T05:09:05.582Z,575.00
2023-05-07T05:10:05.644Z,579.00
2023-05-07T05:11:05.713Z,583.00
2023-05-07T05:12:05.837Z,577.00
2023-05-07T05:13:05.875Z,572.00
2023-05-07T05:14:05.891Z,581.00
2023-05-07T05:15:05.960Z,584.00
2023-05-07T05:16:06.051Z,578.00
2023-05-07T05:17:06.066Z,580.00
2023-05-07T05:18:06.268Z,583.00
2023-05-07T05:19:06.182Z,597.00
2023-05-07T05:20:06.238Z,598.00
2023-05-07T05:21:06.313Z,583.00
2023-05-07T05:22:06.361Z,582.00
2023-05-07T05:23:06.452Z,589.00
2023-05-07T05:24:06.506Z,585.00
2023-05-07T05:25:06.563Z,584.00
2023-05-07T05:26:06.639Z,581.00
2023-05-07T05:27:06.705Z,586.00
2023-05-07T05:28:06.754Z,587.00
2023-05-07T05:29:06.883Z,591.00
2023-05-07T05:30:06.846Z,583.00
2023-05-07T05:31:06.963Z,585.00
2023-05-07T05:32:06.959Z,580.00
2023-05-07T05:33:07.062Z,583.00
2023-05-07T05:34:07.069Z,583.00
2023-05-07T05:35:07.115Z,584.00
2023-05-07T05:36:07.128Z,584.00
2023-05-07T05:37:07.168Z,588.00
2023-05-07T05:38:07.207Z,589.00
2023-05-07T05:39:07.241Z,584.00
2023-05-07T05:40:07.277Z,584.00
2023-05-07T05:41:07.312Z,588.00
2023-05-07T05:42:07.354Z,587.00
2023-05-07T05:43:07.389Z,583.00
2023-05-07T05:44:07.403Z,587.00
2023-05-07T05:45:07.449Z,578.00
2023-05-07T05:46:07.563Z,580.00
2023-05-07T05:47:07.524Z,581.00
2023-05-07T05:48:07.654Z,578.00
2023-05-07T05:49:07.606Z,581.00
2023-05-07T05:50:07.676Z,577.00
2023-05-07T05:51:07.663Z,587.00
2023-05-07T05:52:09.186Z,583.00
2023-05-07T05:53:07.747Z,573.00
2023-05-07T05:54:07.783Z,577.00
2023-05-07T05:55:07.821Z,569.00
2023-05-07T05:56:07.843Z,573.00
2023-05-07T05:57:07.880Z,572.00
2023-05-07T05:58:07.997Z,576.00
2023-05-07T05:59:08.025Z,576.00
2023-05-07T06:00:08.130Z,573.00
2023-05-07T06:01:08.021Z,572.00
2023-05-07T06:02:08.204Z,575.00
2023-05-07T06:03:08.138Z,569.00
2023-05-07T06:04:08.114Z,566.00
2023-05-07T06:05:08.166Z,566.00
2023-05-07T06:06:08.182Z,567.00
2023-05-07T06:07:08.222Z,569.00
2023-05-07T06:08:08.254Z,568.00
2023-05-07T06:09:08.292Z,568.00
2023-05-07T06:10:08.378Z,569.00
2023-05-07T06:11:08.368Z,570.00
2023-05-07T06:12:08.393Z,568.00
2023-05-07T06:13:08.457Z,569.00
2023-05-07T06:14:08.452Z,573.00
2023-05-07T06:15:08.508Z,573.00
2023-05-07T06:16:08.616Z,573.00
2023-05-07T06:17:08.579Z,572.00
2023-05-07T06:18:08.664Z,577.00
2023-05-07T06:19:08.633Z,576.00
2023-05-07T06:20:08.820Z,569.00
2023-05-07T06:21:08.715Z,556.00
2023-05-07T06:22:08.735Z,572.00
2023-05-07T06:23:08.765Z,560.00
2023-05-07T06:24:08.874Z,567.00
2023-05-07T06:25:08.836Z,564.00
2023-05-07T06:26:08.880Z,557.00
2023-05-07T06:27:08.887Z,560.00
2023-05-07T06:28:08.916Z,562.00
2023-05-07T06:29:08.958Z,555.00
2023-05-07T06:30:09.121Z,563.00
2023-05-07T06:31:09.016Z,565.00
2023-05-07T06:32:09.232Z,561.00
2023-05-07T06:33:09.181Z,560.00
2023-05-07T06:34:09.123Z,546.00
2023-05-07T06:35:09.166Z,549.00
2023-05-07T06:36:09.206Z,551.00
2023-05-07T06:37:09.241Z,551.00
2023-05-07T06:38:09.266Z,549.00
2023-05-07T06:39:09.297Z,536.00
2023-05-07T06:40:09.581Z,530.00
2023-05-07T06:41:09.375Z,526.00
2023-05-07T06:42:09.373Z,535.00
2023-05-07T06:43:09.416Z,530.00
2023-05-07T06:44:09.872Z,516.00
2023-05-07T06:45:09.481Z,528.00
2023-05-07T06:46:09.561Z,521.00
2023-05-07T06:47:09.599Z,529.00
2023-05-07T06:48:09.772Z,519.00
2023-05-07T06:49:09.785Z,536.00
2023-05-07T06:50:10.045Z,531.00
2023-05-07T06:51:09.970Z,518.00
2023-05-07T06:52:10.067Z,538.00
2023-05-07T06:53:10.181Z,515.00
2023-05-07T06:54:10.260Z,504.00
2023-05-07T06:55:10.425Z,510.00
2023-05-07T06:56:10.446Z,506.00
2023-05-07T06:57:10.549Z,505.00
2023-05-07T06:58:10.643Z,496.00
2023-05-07T06:59:10.706Z,502.00
2023-05-07T07:00:11.101Z,505.00
2023-05-07T07:01:10.934Z,522.00
2023-05-07T07:02:10.987Z,525.00
2023-05-07T07:03:11.114Z,512.00
2023-05-07T07:04:11.255Z,512.00
2023-05-07T07:05:11.378Z,519.00
2023-05-07T07:06:11.247Z,514.00
2023-05-07T07:07:11.300Z,498.00
2023-05-07T07:08:11.336Z,501.00
2023-05-07T07:09:11.351Z,490.00
2023-05-07T07:10:11.658Z,488.00
2023-05-07T07:11:11.414Z,472.00
2023-05-07T07:12:11.443Z,458.00
2023-05-07T07:13:11.537Z,505.00
2023-05-07T07:14:11.514Z,500.00
2023-05-07T07:15:11.523Z,512.00
2023-05-07T07:16:11.583Z,504.00
2023-05-07T07:17:11.626Z,502.00
2023-05-07T07:18:11.979Z,517.00
2023-05-07T07:19:11.796Z,519.00
2023-05-07T07:20:12.427Z,512.00
2023-05-07T07:21:11.972Z,520.00
2023-05-07T07:22:12.051Z,507.00
2023-05-07T07:23:12.108Z,508.00
2023-05-07T07:24:12.175Z,508.00
2023-05-07T07:25:12.197Z,509.00
2023-05-07T07:26:12.214Z,510.00
2023-05-07T07:27:12.222Z,511.00
2023-05-07T07:28:12.226Z,503.00
2023-05-07T07:29:12.260Z,503.00
2023-05-07T07:30:12.480Z,500.00
2023-05-07T07:31:12.356Z,511.00
2023-05-07T07:32:12.384Z,509.00
2023-05-07T07:33:12.577Z,514.00
2023-05-07T07:34:12.457Z,504.00
2023-05-07T07:35:12.535Z,512.00
2023-05-07T07:36:12.739Z,504.00
2023-05-07T07:37:12.699Z,507.00
2023-05-07T07:38:12.787Z,511.00
2023-05-07T07:39:12.855Z,507.00
2023-05-07T07:40:13.208Z,502.00
2023-05-07T07:41:13.002Z,508.00
2023-05-07T07:42:13.076Z,515.00
2023-05-07T07:43:13.140Z,503.00
2023-05-07T07:44:15.665Z,503.00
2023-05-07T07:45:13.239Z,509.00
2023-05-07T07:46:13.271Z,512.00
2023-05-07T07:47:13.432Z,510.00
2023-05-07T07:48:13.381Z,512.00
2023-05-07T07:49:13.354Z,504.00
2023-05-07T07:50:19.420Z,515.00
2023-05-07T07:51:14.412Z,516.00
2023-05-07T07:52:13.522Z,516.00
2023-05-07T07:53:13.504Z,517.00
2023-05-07T07:54:13.503Z,523.00
2023-05-07T07:55:13.526Z,516.00
2023-05-07T07:56:13.553Z,516.00
2023-05-07T07:57:13.591Z,519.00
2023-05-07T07:58:13.622Z,516.00
2023-05-07T07:59:13.641Z,520.00
2023-05-07T08:00:13.701Z,528.00
2023-05-07T08:01:13.715Z,535.00
2023-05-07T08:02:13.765Z,541.00
2023-05-07T08:03:13.909Z,548.00
2023-05-07T08:04:13.913Z,542.00
2023-05-07T08:05:13.793Z,539.00
2023-05-07T08:06:15.303Z,540.00
2023-05-07T08:07:13.844Z,540.00
2023-05-07T08:08:13.958Z,540.00
2023-05-07T08:09:13.896Z,541.00
2023-05-07T08:10:13.933Z,533.00
2023-05-07T08:11:13.969Z,525.00
2023-05-07T08:12:13.983Z,526.00
2023-05-07T08:13:14.048Z,531.00
2023-05-07T08:14:14.035Z,529.00
2023-05-07T08:15:14.109Z,536.00
2023-05-07T08:16:14.161Z,535.00
2023-05-07T08:17:14.176Z,528.00
2023-05-07T08:18:14.208Z,523.00
2023-05-07T08:19:14.235Z,513.00
2023-05-07T08:20:14.446Z,521.00
2023-05-07T08:21:14.321Z,521.00
2023-05-07T08:22:14.385Z,522.00
2023-05-07T08:23:14.401Z,522.00
2023-05-07T08:24:14.573Z,523.00
2023-05-07T08:25:14.448Z,527.00
2023-05-07T08:26:14.495Z,527.00
2023-05-07T08:27:14.525Z,519.00
2023-05-07T08:28:14.540Z,512.00
2023-05-07T08:29:14.578Z,513.00
2023-05-07T08:30:14.593Z,510.00
2023-05-07T08:31:14.715Z,508.00
2023-05-07T08:32:14.661Z,508.00
2023-05-07T08:33:14.682Z,506.00
2023-05-07T08:34:14.708Z,509.00
2023-05-07T08:35:14.736Z,515.00
2023-05-07T08:36:14.768Z,514.00
2023-05-07T08:37:14.782Z,519.00
2023-05-07T08:38:14.836Z,516.00
2023-05-07T08:39:14.871Z,511.00
2023-05-07T08:40:15.027Z,507.00
2023-05-07T08:41:14.991Z,507.00
2023-05-07T08:42:15.050Z,505.00
2023-05-07T08:43:15.085Z,503.00
2023-05-07T08:44:15.104Z,504.00
2023-05-07T08:45:15.140Z,502.00
2023-05-07T08:46:15.236Z,501.00
2023-05-07T08:47:15.195Z,499.00
2023-05-07T08:48:15.227Z,506.00
2023-05-07T08:49:15.254Z,509.00
2023-05-07T08:50:15.276Z,500.00
2023-05-07T08:51:15.306Z,507.00
2023-05-07T08:52:15.338Z,502.00
2023-05-07T08:53:15.379Z,504.00
2023-05-07T08:54:15.383Z,511.00
2023-05-07T08:55:15.460Z,503.00
2023-05-07T08:56:15.592Z,502.00
2023-05-07T08:57:15.459Z,516.00
2023-05-07T08:58:15.496Z,507.00
2023-05-07T08:59:15.531Z,513.00
2023-05-07T09:00:15.551Z,512.00
2023-05-07T09:01:15.614Z,508.00
2023-05-07T09:02:15.752Z,507.00
2023-05-07T09:03:15.695Z,511.00
2023-05-07T09:04:15.753Z,511.00
2023-05-07T09:05:15.682Z,515.00
2023-05-07T09:06:15.719Z,513.00
2023-05-07T09:07:15.742Z,508.00
2023-05-07T09:08:15.764Z,511.00
2023-05-07T09:09:15.803Z,508.00
2023-05-07T09:10:15.854Z,511.00
2023-05-07T09:11:15.873Z,511.00
2023-05-07T09:12:15.981Z,507.00
2023-05-07T09:13:16.002Z,507.00
2023-05-07T09:14:16.032Z,508.00
2023-05-07T09:15:16.047Z,512.00
2023-05-07T09:16:16.129Z,512.00
2023-05-07T09:17:16.131Z,517.00
2023-05-07T09:18:16.592Z,516.00
2023-05-07T09:19:16.204Z,518.00
2023-05-07T09:20:16.242Z,520.00
2023-05-07T09:21:16.300Z,518.00
2023-05-07T09:22:16.341Z,521.00
2023-05-07T09:23:16.374Z,521.00
2023-05-07T09:24:16.421Z,523.00
2023-05-07T09:25:16.448Z,528.00
2023-05-07T09:26:16.483Z,526.00
2023-05-07T09:27:16.532Z,541.00
2023-05-07T09:28:16.648Z,533.00
2023-05-07T09:29:16.593Z,532.00
2023-05-07T09:30:16.660Z,541.00
2023-05-07T09:31:19.438Z,541.00
2023-05-07T09:32:16.706Z,542.00
2023-05-07T09:33:16.723Z,538.00
2023-05-07T09:34:16.756Z,538.00
2023-05-07T09:35:16.770Z,535.00
2023-05-07T09:36:16.807Z,539.00
2023-05-07T09:37:16.866Z,545.00
2023-05-07T09:38:16.853Z,542.00
2023-05-07T09:39:16.860Z,541.00
2023-05-07T09:40:16.909Z,534.00
2023-05-07T09:41:16.910Z,535.00
2023-05-07T09:42:16.967Z,540.00
2023-05-07T09:43:16.952Z,534.00
2023-05-07T09:44:17.045Z,534.00
2023-05-07T09:45:17.030Z,524.00
2023-05-07T09:46:17.074Z,524.00
2023-05-07T09:47:17.058Z,522.00
2023-05-07T09:48:17.096Z,520.00
2023-05-07T09:49:18.560Z,511.00
2023-05-07T09:50:17.353Z,518.00
2023-05-07T09:51:17.355Z,512.00
2023-05-07T09:52:17.372Z,512.00
2023-05-07T09:53:17.423Z,512.00
2023-05-07T09:54:17.436Z,506.00
2023-05-07T09:55:17.446Z,505.00
2023-05-07T09:56:17.478Z,510.00
2023-05-07T09:57:17.486Z,507.00
2023-05-07T09:58:17.560Z,500.00
2023-05-07T09:59:17.565Z,506.00
2023-05-07T10:00:17.820Z,504.00
2023-05-07T10:01:17.628Z,508.00
2023-05-07T10:02:17.680Z,507.00
2023-05-07T10:03:17.738Z,502.00
2023-05-07T10:04:17.679Z,503.00
2023-05-07T10:05:17.694Z,501.00
2023-05-07T10:06:17.744Z,496.00
2023-05-07T10:07:17.760Z,504.00
2023-05-07T10:08:17.822Z,502.00
2023-05-07T10:09:17.815Z,507.00
2023-05-07T10:10:17.991Z,504.00
2023-05-07T10:11:17.877Z,505.00
2023-05-07T10:12:17.913Z,505.00
2023-05-07T10:13:18.026Z,511.00
2023-05-07T10:14:17.952Z,515.00
2023-05-07T10:15:17.968Z,511.00
2023-05-07T10:16:18.178Z,512.00
2023-05-07T10:17:18.045Z,508.00
2023-05-07T10:18:18.192Z,511.00
2023-05-07T10:19:18.110Z,504.00
2023-05-07T10:20:18.127Z,510.00
2023-05-07T10:21:18.155Z,518.00
2023-05-07T10:22:18.167Z,514.00
2023-05-07T10:23:18.195Z,511.00
2023-05-07T10:24:18.210Z,511.00
2023-05-07T10:25:18.235Z,515.00
2023-05-07T10:26:18.253Z,522.00
2023-05-07T10:27:18.293Z,515.00
2023-05-07T10:28:18.318Z,519.00
2023-05-07T10:29:18.366Z,517.00
2023-05-07T10:30:18.381Z,522.00
2023-05-07T10:31:18.465Z,520.00
2023-05-07T10:32:18.458Z,520.00
2023-05-07T10:33:18.532Z,519.00
2023-05-07T10:34:18.569Z,515.00
2023-05-07T10:35:18.597Z,516.00
2023-05-07T10:36:18.633Z,511.00
2023-05-07T10:37:18.690Z,503.00
2023-05-07T10:38:18.766Z,506.00
2023-05-07T10:39:18.772Z,516.00
2023-05-07T10:40:18.853Z,519.00
2023-05-07T10:41:18.819Z,526.00
2023-05-07T10:42:18.857Z,528.00
2023-05-07T10:43:18.917Z,532.00
2023-05-07T10:44:18.926Z,527.00
2023-05-07T10:45:18.963Z,531.00
2023-05-07T10:46:19.088Z,516.00
2023-05-07T10:47:19.047Z,523.00
2023-05-07T10:48:28.945Z,520.00
2023-05-07T10:49:21.707Z,520.00
2023-05-07T10:50:19.128Z,520.00
2023-05-07T10:51:19.153Z,518.00
2023-05-07T10:52:19.161Z,515.00
2023-05-07T10:53:19.195Z,512.00
2023-05-07T10:54:19.221Z,514.00
2023-05-07T10:55:19.252Z,519.00
2023-05-07T10:56:19.350Z,522.00
2023-05-07T10:57:19.291Z,526.00
2023-05-07T10:58:30.141Z,528.00
2023-05-07T10:59:20.354Z,528.00
2023-05-07T11:00:31.448Z,529.00
2023-05-07T11:01:20.441Z,528.00
2023-05-07T11:02:19.400Z,529.00
2023-05-07T11:03:19.428Z,531.00
2023-05-07T11:04:19.510Z,529.00
2023-05-07T11:05:19.493Z,523.00
2023-05-07T11:06:19.504Z,512.00
2023-05-07T11:07:19.507Z,499.00
2023-05-07T11:08:19.542Z,508.00
2023-05-07T11:09:19.569Z,520.00
2023-05-07T11:10:19.568Z,510.00
2023-05-07T11:11:19.590Z,521.00
2023-05-07T11:12:19.606Z,538.00
2023-05-07T11:13:19.780Z,515.00
2023-05-07T11:14:19.659Z,517.00
2023-05-07T11:15:19.670Z,534.00
2023-05-07T11:16:19.726Z,540.00
2023-05-07T11:17:19.749Z,546.00
2023-05-07T11:18:19.739Z,548.00
2023-05-07T11:19:19.936Z,556.00
2023-05-07T11:20:19.888Z,550.00
2023-05-07T11:21:19.812Z,551.00
2023-05-07T11:22:19.837Z,553.00
2023-05-07T11:23:19.851Z,545.00
2023-05-07T11:24:19.900Z,532.00
2023-05-07T11:25:19.946Z,527.00
2023-05-07T11:26:20.107Z,532.00
2023-05-07T11:27:20.051Z,505.00
2023-05-07T11:28:20.135Z,501.00
2023-05-07T11:29:22.129Z,524.00
2023-05-07T11:30:20.277Z,528.00
2023-05-07T11:31:20.417Z,549.00
2023-05-07T11:32:20.426Z,550.00
2023-05-07T11:33:20.493Z,565.00
2023-05-07T11:34:20.542Z,572.00
2023-05-07T11:35:20.577Z,589.00
2023-05-07T11:36:20.667Z,584.00
2023-05-07T11:37:20.689Z,590.00
2023-05-07T11:38:20.765Z,580.00
2023-05-07T11:39:20.813Z,579.00
2023-05-07T11:40:20.828Z,580.00
2023-05-07T11:41:20.850Z,580.00
2023-05-07T11:42:20.874Z,579.00
2023-05-07T11:43:20.907Z,582.00
2023-05-07T11:44:20.941Z,590.00
2023-05-07T11:45:20.956Z,589.00
2023-05-07T11:46:21.035Z,592.00
2023-05-07T11:47:21.099Z,597.00
2023-05-07T11:48:21.024Z,599.00
2023-05-07T11:49:21.053Z,570.00
2023-05-07T11:50:21.080Z,571.00
2023-05-07T11:51:21.110Z,573.00
2023-05-07T11:52:21.127Z,574.00
2023-05-07T11:53:21.161Z,582.00
2023-05-07T11:54:21.191Z,597.00
2023-05-07T11:55:21.224Z,591.00
2023-05-07T11:56:21.225Z,591.00
2023-05-07T11:57:21.255Z,591.00
2023-05-07T11:58:21.294Z,577.00
2023-05-07T11:59:21.320Z,581.00
2023-05-07T12:00:21.355Z,588.00
2023-05-07T12:01:21.374Z,557.00
2023-05-07T12:02:21.430Z,538.00
2023-05-07T12:03:21.474Z,563.00
2023-05-07T12:04:21.611Z,570.00
2023-05-07T12:05:21.600Z,566.00
2023-05-07T12:06:21.492Z,552.00
2023-05-07T12:07:21.553Z,567.00
2023-05-07T12:08:21.559Z,575.00
2023-05-07T12:09:21.568Z,572.00
2023-05-07T12:10:21.592Z,569.00
2023-05-07T12:11:21.597Z,569.00
2023-05-07T12:12:21.630Z,571.00
2023-05-07T12:13:21.667Z,573.00
2023-05-07T12:14:21.668Z,577.00
2023-05-07T12:15:21.682Z,591.00
2023-05-07T12:16:21.757Z,598.00
2023-05-07T12:17:21.723Z,602.00
2023-05-07T12:18:21.741Z,606.00
2023-05-07T12:19:21.749Z,615.00
2023-05-07T12:20:21.766Z,611.00
2023-05-07T12:21:21.791Z,609.00
2023-05-07T12:22:21.825Z,608.00
2023-05-07T12:23:21.845Z,615.00
2023-05-07T12:24:22.211Z,618.00
2023-05-07T12:25:21.913Z,609.00
2023-05-07T12:26:21.936Z,613.00
2023-05-07T12:27:21.930Z,611.00